sensor_id;sensor_type;location;lat;lon;timestamp;pressure;altitude;pressure_sealevel;temperature;humidity
5812;BME280;2932;52.400;9.558;2024-01-07T00:01:25;101136.38;;;6.29;65.47
5812;BME280;2932;52.400;9.558;2024-01-07T00:03:51;101133.13;;;6.27;65.58
5812;BME280;2932;52.400;9.558;2024-01-07T00:06:17;101134.25;;;6.26;65.77
5812;BME280;2932;52.400;9.558;2024-01-07T00:08:42;101136.56;;;6.47;65.63
5812;BME280;2932;52.400;9.558;2024-01-07T00:11:08;101139.31;;;6.47;65.11
5812;BME280;2932;52.400;9.558;2024-01-07T00:13:33;101143.00;;;6.28;65.17
5812;BME280;2932;52.400;9.558;2024-01-07T00:15:58;101137.41;;;6.33;65.32
5812;BME280;2932;52.400;9.558;2024-01-07T00:18:23;101148.50;;;6.28;65.08
5812;BME280;2932;52.400;9.558;2024-01-07T00:20:49;101148.16;;;6.16;65.42
5812;BME280;2932;52.400;9.558;2024-01-07T00:23:15;101140.22;;;6.15;65.71
5812;BME280;2932;52.400;9.558;2024-01-07T00:25:40;101141.06;;;6.43;65.97
5812;BME280;2932;52.400;9.558;2024-01-07T00:28:06;101144.22;;;6.36;66.01
5812;BME280;2932;52.400;9.558;2024-01-07T00:30:31;101153.56;;;6.49;65.84
5812;BME280;2932;52.400;9.558;2024-01-07T00:32:57;101152.56;;;6.31;65.14
5812;BME280;2932;52.400;9.558;2024-01-07T00:35:22;101164.31;;;6.04;65.06
5812;BME280;2932;52.400;9.558;2024-01-07T00:37:50;101167.34;;;6.35;65.49
5812;BME280;2932;52.400;9.558;2024-01-07T00:40:16;101165.59;;;6.53;65.10
5812;BME280;2932;52.400;9.558;2024-01-07T00:42:41;101171.50;;;6.32;64.83
5812;BME280;2932;52.400;9.558;2024-01-07T00:45:07;101168.75;;;6.32;64.75
5812;BME280;2932;52.400;9.558;2024-01-07T00:47:32;101175.94;;;6.15;65.06
5812;BME280;2932;52.400;9.558;2024-01-07T00:49:58;101175.22;;;6.09;64.51
5812;BME280;2932;52.400;9.558;2024-01-07T00:52:23;101175.84;;;6.20;65.14
5812;BME280;2932;52.400;9.558;2024-01-07T00:54:48;101173.22;;;6.28;64.99
5812;BME280;2932;52.400;9.558;2024-01-07T00:57:14;101178.66;;;6.01;64.65
5812;BME280;2932;52.400;9.558;2024-01-07T00:59:39;101178.34;;;6.02;64.82
5812;BME280;2932;52.400;9.558;2024-01-07T01:02:05;101185.47;;;6.03;64.98
5812;BME280;2932;52.400;9.558;2024-01-07T01:04:30;101187.94;;;6.05;65.04
5812;BME280;2932;52.400;9.558;2024-01-07T01:06:55;101193.63;;;5.95;65.04
5812;BME280;2932;52.400;9.558;2024-01-07T01:09:20;101203.72;;;5.81;65.32
5812;BME280;2932;52.400;9.558;2024-01-07T01:11:46;101204.81;;;5.98;65.39
5812;BME280;2932;52.400;9.558;2024-01-07T01:14:11;101207.78;;;6.16;65.44
5812;BME280;2932;52.400;9.558;2024-01-07T01:16:36;101203.34;;;6.20;65.24
5812;BME280;2932;52.400;9.558;2024-01-07T01:19:02;101222.03;;;5.85;64.72
5812;BME280;2932;52.400;9.558;2024-01-07T01:21:27;101216.94;;;6.11;64.78
5812;BME280;2932;52.400;9.558;2024-01-07T01:23:53;101218.84;;;5.97;64.80
5812;BME280;2932;52.400;9.558;2024-01-07T01:26:19;101235.63;;;5.77;64.77
5812;BME280;2932;52.400;9.558;2024-01-07T01:28:44;101233.91;;;5.62;64.59
5812;BME280;2932;52.400;9.558;2024-01-07T01:31:12;101242.06;;;5.67;65.26
5812;BME280;2932;52.400;9.558;2024-01-07T01:33:38;101238.22;;;5.87;65.21
5812;BME280;2932;52.400;9.558;2024-01-07T01:36:04;101239.84;;;5.88;64.90
5812;BME280;2932;52.400;9.558;2024-01-07T01:38:30;101243.19;;;5.85;64.69
5812;BME280;2932;52.400;9.558;2024-01-07T01:40:56;101254.53;;;5.78;64.78
5812;BME280;2932;52.400;9.558;2024-01-07T01:43:25;101255.13;;;5.75;64.67
5812;BME280;2932;52.400;9.558;2024-01-07T01:45:55;101250.69;;;5.60;64.67
5812;BME280;2932;52.400;9.558;2024-01-07T01:48:25;101258.31;;;5.63;64.36
5812;BME280;2932;52.400;9.558;2024-01-07T01:50:52;101267.81;;;5.71;64.59
5812;BME280;2932;52.400;9.558;2024-01-07T01:53:19;101262.69;;;5.64;64.69
5812;BME280;2932;52.400;9.558;2024-01-07T01:55:45;101265.97;;;5.66;64.98
5812;BME280;2932;52.400;9.558;2024-01-07T01:58:10;101270.50;;;5.95;65.02
5812;BME280;2932;52.400;9.558;2024-01-07T02:00:38;101276.13;;;5.85;64.79
5812;BME280;2932;52.400;9.558;2024-01-07T02:03:03;101284.44;;;5.80;64.67
5812;BME280;2932;52.400;9.558;2024-01-07T02:05:28;101275.84;;;5.67;65.08
5812;BME280;2932;52.400;9.558;2024-01-07T02:07:54;101285.47;;;5.65;65.28
5812;BME280;2932;52.400;9.558;2024-01-07T02:10:21;101287.34;;;5.69;65.04
5812;BME280;2932;52.400;9.558;2024-01-07T02:12:50;101282.31;;;5.58;65.12
5812;BME280;2932;52.400;9.558;2024-01-07T02:15:15;101299.53;;;5.21;65.13
5812;BME280;2932;52.400;9.558;2024-01-07T02:17:41;101303.03;;;5.26;65.34
5812;BME280;2932;52.400;9.558;2024-01-07T02:20:07;101295.03;;;5.30;65.36
5812;BME280;2932;52.400;9.558;2024-01-07T02:22:32;101300.84;;;5.47;65.25
5812;BME280;2932;52.400;9.558;2024-01-07T02:24:57;101298.03;;;5.71;65.20
5812;BME280;2932;52.400;9.558;2024-01-07T02:27:23;101296.91;;;5.53;65.07
5812;BME280;2932;52.400;9.558;2024-01-07T02:29:48;101303.88;;;5.46;64.81
5812;BME280;2932;52.400;9.558;2024-01-07T02:32:13;101303.59;;;5.47;64.88
5812;BME280;2932;52.400;9.558;2024-01-07T02:34:39;101317.75;;;5.12;65.31
5812;BME280;2932;52.400;9.558;2024-01-07T02:37:04;101308.47;;;5.08;65.67
5812;BME280;2932;52.400;9.558;2024-01-07T02:39:29;101314.78;;;5.08;65.40
5812;BME280;2932;52.400;9.558;2024-01-07T02:41:54;101310.31;;;5.36;65.81
5812;BME280;2932;52.400;9.558;2024-01-07T02:44:20;101312.75;;;5.19;65.35
5812;BME280;2932;52.400;9.558;2024-01-07T02:46:45;101311.81;;;5.05;65.55
5812;BME280;2932;52.400;9.558;2024-01-07T02:49:12;101324.22;;;4.97;65.55
5812;BME280;2932;52.400;9.558;2024-01-07T02:51:37;101328.72;;;5.12;65.24
5812;BME280;2932;52.400;9.558;2024-01-07T02:54:03;101329.06;;;5.05;64.92
5812;BME280;2932;52.400;9.558;2024-01-07T02:56:28;101332.28;;;5.12;64.94
5812;BME280;2932;52.400;9.558;2024-01-07T02:58:53;101335.59;;;5.33;64.86
5812;BME280;2932;52.400;9.558;2024-01-07T03:01:21;101333.78;;;5.47;65.01
5812;BME280;2932;52.400;9.558;2024-01-07T03:03:47;101334.88;;;5.65;64.90
5812;BME280;2932;52.400;9.558;2024-01-07T03:06:13;101343.41;;;5.63;64.42
5812;BME280;2932;52.400;9.558;2024-01-07T03:08:38;101333.94;;;5.75;64.88
5812;BME280;2932;52.400;9.558;2024-01-07T03:11:06;101341.72;;;5.67;64.90
5812;BME280;2932;52.400;9.558;2024-01-07T03:13:32;101343.06;;;5.51;64.79
5812;BME280;2932;52.400;9.558;2024-01-07T03:15:58;101340.97;;;5.62;64.77
5812;BME280;2932;52.400;9.558;2024-01-07T03:18:23;101347.50;;;5.47;64.88
5812;BME280;2932;52.400;9.558;2024-01-07T03:20:49;101349.47;;;5.42;64.53
5812;BME280;2932;52.400;9.558;2024-01-07T03:23:14;101349.34;;;5.52;64.96
5812;BME280;2932;52.400;9.558;2024-01-07T03:25:39;101355.78;;;5.42;64.98
5812;BME280;2932;52.400;9.558;2024-01-07T03:28:05;101352.00;;;5.38;65.42
5812;BME280;2932;52.400;9.558;2024-01-07T03:30:30;101353.44;;;5.54;65.36
5812;BME280;2932;52.400;9.558;2024-01-07T03:32:55;101359.16;;;5.58;64.99
5812;BME280;2932;52.400;9.558;2024-01-07T03:35:21;101366.19;;;5.45;65.17
5812;BME280;2932;52.400;9.558;2024-01-07T03:37:48;101370.25;;;5.48;65.19
5812;BME280;2932;52.400;9.558;2024-01-07T03:40:13;101370.44;;;5.32;65.58
5812;BME280;2932;52.400;9.558;2024-01-07T03:42:38;101369.69;;;5.51;65.27
5812;BME280;2932;52.400;9.558;2024-01-07T03:45:04;101379.03;;;5.50;64.68
5812;BME280;2932;52.400;9.558;2024-01-07T03:47:30;101372.47;;;5.46;64.75
5812;BME280;2932;52.400;9.558;2024-01-07T03:49:56;101372.38;;;5.32;64.59
5812;BME280;2932;52.400;9.558;2024-01-07T03:52:22;101384.38;;;5.36;64.88
5812;BME280;2932;52.400;9.558;2024-01-07T03:54:47;101384.06;;;5.61;64.78
5812;BME280;2932;52.400;9.558;2024-01-07T03:57:12;101391.88;;;5.54;64.59
5812;BME280;2932;52.400;9.558;2024-01-07T03:59:38;101387.13;;;5.36;64.46
5812;BME280;2932;52.400;9.558;2024-01-07T04:02:03;101395.19;;;5.27;64.43
5812;BME280;2932;52.400;9.558;2024-01-07T04:04:29;101402.78;;;5.35;64.36
5812;BME280;2932;52.400;9.558;2024-01-07T04:06:54;101414.63;;;5.31;64.45
5812;BME280;2932;52.400;9.558;2024-01-07T04:09:19;101408.75;;;5.19;64.08
5812;BME280;2932;52.400;9.558;2024-01-07T04:11:48;101413.63;;;5.22;64.05
5812;BME280;2932;52.400;9.558;2024-01-07T04:14:15;101406.19;;;4.98;63.77
5812;BME280;2932;52.400;9.558;2024-01-07T04:16:40;101422.56;;;5.09;63.92
5812;BME280;2932;52.400;9.558;2024-01-07T04:19:06;101419.28;;;5.07;64.05
5812;BME280;2932;52.400;9.558;2024-01-07T04:21:31;101421.97;;;5.35;63.97
5812;BME280;2932;52.400;9.558;2024-01-07T04:23:56;101422.22;;;5.15;63.69
5812;BME280;2932;52.400;9.558;2024-01-07T04:26:22;101427.31;;;5.51;62.81
5812;BME280;2932;52.400;9.558;2024-01-07T04:28:47;101433.44;;;5.43;62.26
5812;BME280;2932;52.400;9.558;2024-01-07T04:31:12;101430.63;;;5.48;61.99
5812;BME280;2932;52.400;9.558;2024-01-07T04:33:38;101435.53;;;5.27;61.75
5812;BME280;2932;52.400;9.558;2024-01-07T04:36:03;101436.56;;;5.31;61.37
5812;BME280;2932;52.400;9.558;2024-01-07T04:38:31;101436.03;;;5.29;61.63
5812;BME280;2932;52.400;9.558;2024-01-07T04:40:56;101434.47;;;5.23;61.39
5812;BME280;2932;52.400;9.558;2024-01-07T04:43:22;101446.03;;;5.20;61.47
5812;BME280;2932;52.400;9.558;2024-01-07T04:45:47;101447.16;;;5.19;61.12
5812;BME280;2932;52.400;9.558;2024-01-07T04:48:13;101455.28;;;5.00;60.73
5812;BME280;2932;52.400;9.558;2024-01-07T04:50:39;101459.13;;;4.99;60.76
5812;BME280;2932;52.400;9.558;2024-01-07T04:53:05;101452.69;;;5.14;60.67
5812;BME280;2932;52.400;9.558;2024-01-07T04:55:31;101451.63;;;5.10;60.44
5812;BME280;2932;52.400;9.558;2024-01-07T04:57:56;101465.41;;;5.28;60.14
5812;BME280;2932;52.400;9.558;2024-01-07T05:00:21;101464.63;;;5.23;60.38
5812;BME280;2932;52.400;9.558;2024-01-07T05:02:47;101470.38;;;5.26;60.58
5812;BME280;2932;52.400;9.558;2024-01-07T05:05:12;101480.72;;;4.77;60.64
5812;BME280;2932;52.400;9.558;2024-01-07T05:07:38;101478.22;;;5.09;60.26
5812;BME280;2932;52.400;9.558;2024-01-07T05:10:04;101486.88;;;4.92;60.54
5812;BME280;2932;52.400;9.558;2024-01-07T05:12:29;101489.41;;;5.18;60.19
5812;BME280;2932;52.400;9.558;2024-01-07T05:14:54;101487.13;;;5.25;60.10
5812;BME280;2932;52.400;9.558;2024-01-07T05:17:20;101495.22;;;5.11;60.13
5812;BME280;2932;52.400;9.558;2024-01-07T05:19:45;101486.69;;;5.13;60.49
5812;BME280;2932;52.400;9.558;2024-01-07T05:22:10;101496.00;;;5.17;60.27
5812;BME280;2932;52.400;9.558;2024-01-07T05:24:39;101503.34;;;4.87;60.11
5812;BME280;2932;52.400;9.558;2024-01-07T05:27:05;101499.28;;;5.19;60.29
5812;BME280;2932;52.400;9.558;2024-01-07T05:29:31;101508.66;;;5.13;59.93
5812;BME280;2932;52.400;9.558;2024-01-07T05:31:59;101505.91;;;5.13;59.70
5812;BME280;2932;52.400;9.558;2024-01-07T05:34:25;101516.56;;;5.43;59.73
5812;BME280;2932;52.400;9.558;2024-01-07T05:36:51;101509.84;;;5.59;59.24
5812;BME280;2932;52.400;9.558;2024-01-07T05:39:16;101515.53;;;5.63;59.13
5812;BME280;2932;52.400;9.558;2024-01-07T05:41:41;101522.22;;;5.57;59.27
5812;BME280;2932;52.400;9.558;2024-01-07T05:44:07;101526.81;;;5.32;59.10
5812;BME280;2932;52.400;9.558;2024-01-07T05:46:33;101525.53;;;5.25;59.59
5812;BME280;2932;52.400;9.558;2024-01-07T05:48:58;101536.94;;;5.37;59.30
5812;BME280;2932;52.400;9.558;2024-01-07T05:51:24;101531.97;;;5.39;59.44
5812;BME280;2932;52.400;9.558;2024-01-07T05:53:49;101534.84;;;5.24;59.28
5812;BME280;2932;52.400;9.558;2024-01-07T05:56:15;101537.88;;;5.22;59.33
5812;BME280;2932;52.400;9.558;2024-01-07T05:58:40;101542.78;;;5.25;59.45
5812;BME280;2932;52.400;9.558;2024-01-07T06:01:07;101540.22;;;5.39;59.37
5812;BME280;2932;52.400;9.558;2024-01-07T06:03:33;101554.94;;;5.19;58.98
5812;BME280;2932;52.400;9.558;2024-01-07T06:05:58;101553.63;;;5.12;58.68
5812;BME280;2932;52.400;9.558;2024-01-07T06:08:24;101564.13;;;5.33;58.41
5812;BME280;2932;52.400;9.558;2024-01-07T06:10:49;101566.75;;;5.20;58.44
5812;BME280;2932;52.400;9.558;2024-01-07T06:13:14;101573.69;;;4.68;58.55
5812;BME280;2932;52.400;9.558;2024-01-07T06:15:40;101583.50;;;4.79;58.72
5812;BME280;2932;52.400;9.558;2024-01-07T06:18:05;101584.44;;;4.98;58.93
5812;BME280;2932;52.400;9.558;2024-01-07T06:20:30;101579.84;;;5.23;58.49
5812;BME280;2932;52.400;9.558;2024-01-07T06:22:56;101589.63;;;5.00;58.39
5812;BME280;2932;52.400;9.558;2024-01-07T06:25:21;101598.16;;;4.98;58.73
5812;BME280;2932;52.400;9.558;2024-01-07T06:27:46;101605.34;;;4.89;58.44
5812;BME280;2932;52.400;9.558;2024-01-07T06:30:12;101607.94;;;4.65;58.25
5812;BME280;2932;52.400;9.558;2024-01-07T06:32:38;101609.72;;;4.90;58.00
5812;BME280;2932;52.400;9.558;2024-01-07T06:35:04;101615.09;;;5.06;58.14
5812;BME280;2932;52.400;9.558;2024-01-07T06:37:30;101621.28;;;4.82;57.72
5812;BME280;2932;52.400;9.558;2024-01-07T06:39:56;101628.09;;;4.90;57.72
5812;BME280;2932;52.400;9.558;2024-01-07T06:42:22;101637.25;;;4.70;58.29
5812;BME280;2932;52.400;9.558;2024-01-07T06:44:47;101635.75;;;4.93;58.26
5812;BME280;2932;52.400;9.558;2024-01-07T06:47:12;101641.28;;;5.27;58.06
5812;BME280;2932;52.400;9.558;2024-01-07T06:49:38;101642.31;;;5.36;57.77
5812;BME280;2932;52.400;9.558;2024-01-07T06:52:04;101643.47;;;5.30;57.41
5812;BME280;2932;52.400;9.558;2024-01-07T06:54:30;101649.75;;;5.30;57.52
5812;BME280;2932;52.400;9.558;2024-01-07T06:56:55;101654.09;;;5.36;57.21
5812;BME280;2932;52.400;9.558;2024-01-07T06:59:20;101658.31;;;5.24;56.87
5812;BME280;2932;52.400;9.558;2024-01-07T07:01:46;101659.88;;;4.96;56.89
5812;BME280;2932;52.400;9.558;2024-01-07T07:04:11;101671.59;;;5.07;57.33
5812;BME280;2932;52.400;9.558;2024-01-07T07:06:36;101671.13;;;4.89;57.33
5812;BME280;2932;52.400;9.558;2024-01-07T07:09:02;101673.56;;;5.01;57.53
5812;BME280;2932;52.400;9.558;2024-01-07T07:11:27;101682.13;;;4.84;57.54
5812;BME280;2932;52.400;9.558;2024-01-07T07:13:52;101688.94;;;4.97;57.57
5812;BME280;2932;52.400;9.558;2024-01-07T07:16:17;101690.25;;;5.10;57.92
5812;BME280;2932;52.400;9.558;2024-01-07T07:18:43;101689.69;;;5.08;57.57
5812;BME280;2932;52.400;9.558;2024-01-07T07:21:08;101689.69;;;5.08;57.55
5812;BME280;2932;52.400;9.558;2024-01-07T07:23:33;101688.63;;;5.03;57.66
5812;BME280;2932;52.400;9.558;2024-01-07T07:25:58;101703.94;;;5.10;57.58
5812;BME280;2932;52.400;9.558;2024-01-07T07:28:24;101707.03;;;4.93;57.72
5812;BME280;2932;52.400;9.558;2024-01-07T07:30:49;101704.00;;;4.99;57.32
5812;BME280;2932;52.400;9.558;2024-01-07T07:33:14;101722.44;;;4.84;57.61
5812;BME280;2932;52.400;9.558;2024-01-07T07:35:40;101728.69;;;4.99;57.58
5812;BME280;2932;52.400;9.558;2024-01-07T07:38:07;101736.09;;;4.99;59.03
5812;BME280;2932;52.400;9.558;2024-01-07T07:40:32;101730.72;;;5.28;59.04
5812;BME280;2932;52.400;9.558;2024-01-07T07:42:57;101722.75;;;5.26;58.98
5812;BME280;2932;52.400;9.558;2024-01-07T07:45:23;101745.81;;;5.25;58.57
5812;BME280;2932;52.400;9.558;2024-01-07T07:47:48;101748.81;;;5.29;58.88
5812;BME280;2932;52.400;9.558;2024-01-07T07:50:13;101749.34;;;5.36;58.09
5812;BME280;2932;52.400;9.558;2024-01-07T07:52:41;101749.63;;;5.34;58.55
5812;BME280;2932;52.400;9.558;2024-01-07T07:55:07;101759.22;;;5.32;57.73
5812;BME280;2932;52.400;9.558;2024-01-07T07:57:32;101759.41;;;4.96;58.43
5812;BME280;2932;52.400;9.558;2024-01-07T07:59:58;101761.31;;;4.96;58.76
5812;BME280;2932;52.400;9.558;2024-01-07T08:02:24;101762.53;;;4.69;58.79
5812;BME280;2932;52.400;9.558;2024-01-07T08:04:49;101771.47;;;4.95;59.75
5812;BME280;2932;52.400;9.558;2024-01-07T08:07:14;101762.13;;;5.07;59.62
5812;BME280;2932;52.400;9.558;2024-01-07T08:09:39;101773.34;;;5.10;59.00
5812;BME280;2932;52.400;9.558;2024-01-07T08:12:06;101771.59;;;5.29;59.23
5812;BME280;2932;52.400;9.558;2024-01-07T08:14:32;101776.75;;;5.41;59.09
5812;BME280;2932;52.400;9.558;2024-01-07T08:16:58;101785.88;;;5.26;58.73
5812;BME280;2932;52.400;9.558;2024-01-07T08:19:23;101791.69;;;5.20;58.70
5812;BME280;2932;52.400;9.558;2024-01-07T08:21:48;101787.41;;;5.48;58.82
5812;BME280;2932;52.400;9.558;2024-01-07T08:24:14;101795.53;;;5.19;58.80
5812;BME280;2932;52.400;9.558;2024-01-07T08:26:39;101792.16;;;5.32;58.82
5812;BME280;2932;52.400;9.558;2024-01-07T08:29:04;101797.66;;;5.27;59.16
5812;BME280;2932;52.400;9.558;2024-01-07T08:31:31;101801.53;;;5.21;59.50
5812;BME280;2932;52.400;9.558;2024-01-07T08:33:56;101803.16;;;5.27;59.10
5812;BME280;2932;52.400;9.558;2024-01-07T08:36:21;101805.84;;;5.42;58.78
5812;BME280;2932;52.400;9.558;2024-01-07T08:38:47;101811.44;;;5.66;58.59
5812;BME280;2932;52.400;9.558;2024-01-07T08:41:15;101814.88;;;5.48;58.40
5812;BME280;2932;52.400;9.558;2024-01-07T08:43:40;101812.13;;;5.48;58.82
5812;BME280;2932;52.400;9.558;2024-01-07T08:46:06;101823.25;;;5.66;58.55
5812;BME280;2932;52.400;9.558;2024-01-07T08:48:31;101821.16;;;5.48;58.36
5812;BME280;2932;52.400;9.558;2024-01-07T08:50:56;101824.31;;;5.70;58.28
5812;BME280;2932;52.400;9.558;2024-01-07T08:53:22;101822.81;;;5.49;58.13
5812;BME280;2932;52.400;9.558;2024-01-07T08:55:48;101818.75;;;5.36;58.35
5812;BME280;2932;52.400;9.558;2024-01-07T08:58:13;101831.38;;;5.32;58.66
5812;BME280;2932;52.400;9.558;2024-01-07T09:00:39;101837.72;;;5.23;58.70
5812;BME280;2932;52.400;9.558;2024-01-07T09:03:05;101841.03;;;5.25;59.14
5812;BME280;2932;52.400;9.558;2024-01-07T09:05:31;101842.06;;;5.39;59.46
5812;BME280;2932;52.400;9.558;2024-01-07T09:07:57;101845.06;;;5.43;58.75
5812;BME280;2932;52.400;9.558;2024-01-07T09:10:22;101856.75;;;5.63;58.86
5812;BME280;2932;52.400;9.558;2024-01-07T09:12:49;101852.72;;;5.56;58.59
5812;BME280;2932;52.400;9.558;2024-01-07T09:15:18;101851.81;;;5.65;58.69
5812;BME280;2932;52.400;9.558;2024-01-07T09:17:44;101858.03;;;5.81;58.61
5812;BME280;2932;52.400;9.558;2024-01-07T09:20:10;101853.34;;;5.87;58.43
5812;BME280;2932;52.400;9.558;2024-01-07T09:22:36;101853.66;;;5.80;58.07
5812;BME280;2932;52.400;9.558;2024-01-07T09:25:02;101866.44;;;5.56;58.03
5812;BME280;2932;52.400;9.558;2024-01-07T09:27:32;101863.88;;;5.64;58.16
5812;BME280;2932;52.400;9.558;2024-01-07T09:29:57;101872.06;;;5.80;58.34
5812;BME280;2932;52.400;9.558;2024-01-07T09:32:23;101868.78;;;5.78;58.26
5812;BME280;2932;52.400;9.558;2024-01-07T09:34:51;101863.41;;;6.01;58.40
5812;BME280;2932;52.400;9.558;2024-01-07T09:37:17;101862.09;;;5.99;57.99
5812;BME280;2932;52.400;9.558;2024-01-07T09:39:42;101870.78;;;6.11;57.78
5812;BME280;2932;52.400;9.558;2024-01-07T09:42:13;101872.59;;;6.26;57.83
5812;BME280;2932;52.400;9.558;2024-01-07T09:44:39;101858.78;;;6.36;57.60
5812;BME280;2932;52.400;9.558;2024-01-07T09:47:06;101872.47;;;6.07;57.23
5812;BME280;2932;52.400;9.558;2024-01-07T09:49:32;101880.00;;;6.30;57.34
5812;BME280;2932;52.400;9.558;2024-01-07T09:51:59;101879.75;;;6.27;57.60
5812;BME280;2932;52.400;9.558;2024-01-07T09:54:28;101879.28;;;6.15;57.44
5812;BME280;2932;52.400;9.558;2024-01-07T09:57:01;101885.94;;;6.03;57.66
5812;BME280;2932;52.400;9.558;2024-01-07T09:59:30;101878.56;;;5.99;58.35
5812;BME280;2932;52.400;9.558;2024-01-07T10:01:56;101882.88;;;6.10;58.32
5812;BME280;2932;52.400;9.558;2024-01-07T10:04:23;101889.97;;;6.16;58.10
5812;BME280;2932;52.400;9.558;2024-01-07T10:06:48;101880.81;;;6.31;58.01
5812;BME280;2932;52.400;9.558;2024-01-07T10:09:15;101890.53;;;6.18;58.05
5812;BME280;2932;52.400;9.558;2024-01-07T10:11:41;101889.13;;;6.21;58.20
5812;BME280;2932;52.400;9.558;2024-01-07T10:14:06;101889.63;;;5.79;58.14
5812;BME280;2932;52.400;9.558;2024-01-07T10:16:32;101885.50;;;5.81;58.48
5812;BME280;2932;52.400;9.558;2024-01-07T10:18:58;101892.06;;;5.95;58.51
5812;BME280;2932;52.400;9.558;2024-01-07T10:21:23;101891.22;;;5.95;58.65
5812;BME280;2932;52.400;9.558;2024-01-07T10:23:49;101892.78;;;6.06;58.57
5812;BME280;2932;52.400;9.558;2024-01-07T10:26:14;101893.88;;;6.10;58.58
5812;BME280;2932;52.400;9.558;2024-01-07T10:28:39;101887.88;;;6.03;58.61
5812;BME280;2932;52.400;9.558;2024-01-07T10:31:05;101889.25;;;6.00;58.68
5812;BME280;2932;52.400;9.558;2024-01-07T10:33:31;101896.47;;;5.91;58.59
5812;BME280;2932;52.400;9.558;2024-01-07T10:36:05;101888.31;;;6.20;59.12
5812;BME280;2932;52.400;9.558;2024-01-07T10:38:32;101889.47;;;6.09;58.81
5812;BME280;2932;52.400;9.558;2024-01-07T10:41:01;101886.34;;;6.26;58.81
5812;BME280;2932;52.400;9.558;2024-01-07T10:43:30;101887.03;;;6.42;58.74
5812;BME280;2932;52.400;9.558;2024-01-07T10:46:00;101881.94;;;6.59;58.09
5812;BME280;2932;52.400;9.558;2024-01-07T10:48:30;101885.06;;;6.47;58.04
5812;BME280;2932;52.400;9.558;2024-01-07T10:51:00;101884.44;;;6.55;57.47
5812;BME280;2932;52.400;9.558;2024-01-07T10:53:28;101885.81;;;6.58;57.86
5812;BME280;2932;52.400;9.558;2024-01-07T10:56:03;101880.94;;;6.50;57.96
5812;BME280;2932;52.400;9.558;2024-01-07T10:58:33;101881.50;;;6.47;58.42
5812;BME280;2932;52.400;9.558;2024-01-07T11:01:02;101881.41;;;6.57;58.25
5812;BME280;2932;52.400;9.558;2024-01-07T11:06:18;101883.78;;;6.40;58.76
5812;BME280;2932;52.400;9.558;2024-01-07T11:08:52;101885.88;;;6.48;58.94
5812;BME280;2932;52.400;9.558;2024-01-07T11:11:27;101896.84;;;6.53;58.54
5812;BME280;2932;52.400;9.558;2024-01-07T11:13:57;101885.78;;;6.63;58.66
5812;BME280;2932;52.400;9.558;2024-01-07T11:16:42;101887.56;;;6.44;58.64
5812;BME280;2932;52.400;9.558;2024-01-07T11:19:09;101894.25;;;6.38;59.03
5812;BME280;2932;52.400;9.558;2024-01-07T11:21:34;101892.25;;;6.77;58.80
5812;BME280;2932;52.400;9.558;2024-01-07T11:24:00;101887.69;;;6.62;58.63
5812;BME280;2932;52.400;9.558;2024-01-07T11:26:28;101893.50;;;6.27;58.86
5812;BME280;2932;52.400;9.558;2024-01-07T11:28:56;101888.22;;;6.35;59.11
5812;BME280;2932;52.400;9.558;2024-01-07T11:34:10;101889.84;;;6.37;59.28
5812;BME280;2932;52.400;9.558;2024-01-07T11:36:36;101887.41;;;6.64;59.24
5812;BME280;2932;52.400;9.558;2024-01-07T11:39:02;101884.63;;;6.69;59.14
5812;BME280;2932;52.400;9.558;2024-01-07T11:41:31;101890.19;;;6.88;59.34
5812;BME280;2932;52.400;9.558;2024-01-07T11:43:59;101890.72;;;6.90;58.87
5812;BME280;2932;52.400;9.558;2024-01-07T11:46:28;101891.63;;;6.80;59.17
5812;BME280;2932;52.400;9.558;2024-01-07T11:48:57;101893.28;;;6.81;59.13
5812;BME280;2932;52.400;9.558;2024-01-07T11:51:28;101890.19;;;6.59;59.37
5812;BME280;2932;52.400;9.558;2024-01-07T11:53:54;101887.19;;;6.84;59.24
5812;BME280;2932;52.400;9.558;2024-01-07T11:56:19;101889.50;;;6.77;58.94
5812;BME280;2932;52.400;9.558;2024-01-07T11:58:45;101889.13;;;6.84;59.01
5812;BME280;2932;52.400;9.558;2024-01-07T12:01:10;101890.69;;;6.95;59.01
5812;BME280;2932;52.400;9.558;2024-01-07T12:03:36;101886.66;;;7.11;58.79
5812;BME280;2932;52.400;9.558;2024-01-07T12:06:02;101882.56;;;7.09;58.44
5812;BME280;2932;52.400;9.558;2024-01-07T12:08:27;101891.56;;;6.90;58.66
5812;BME280;2932;52.400;9.558;2024-01-07T12:10:53;101889.34;;;6.92;58.93
5812;BME280;2932;52.400;9.558;2024-01-07T12:13:19;101883.34;;;6.85;59.31
5812;BME280;2932;52.400;9.558;2024-01-07T12:15:45;101887.72;;;6.86;59.06
5812;BME280;2932;52.400;9.558;2024-01-07T12:18:11;101885.00;;;6.86;59.82
5812;BME280;2932;52.400;9.558;2024-01-07T12:20:36;101891.47;;;7.00;59.58
5812;BME280;2932;52.400;9.558;2024-01-07T12:23:06;101886.31;;;7.18;59.20
5812;BME280;2932;52.400;9.558;2024-01-07T12:25:32;101891.84;;;7.18;58.24
5812;BME280;2932;52.400;9.558;2024-01-07T12:27:57;101889.66;;;7.15;58.29
5812;BME280;2932;52.400;9.558;2024-01-07T12:30:24;101898.97;;;7.19;58.14
5812;BME280;2932;52.400;9.558;2024-01-07T12:32:51;101902.13;;;7.07;58.16
5812;BME280;2932;52.400;9.558;2024-01-07T12:35:17;101900.81;;;6.99;58.72
5812;BME280;2932;52.400;9.558;2024-01-07T12:37:43;101895.47;;;7.13;58.66
5812;BME280;2932;52.400;9.558;2024-01-07T12:40:10;101893.81;;;7.36;58.91
5812;BME280;2932;52.400;9.558;2024-01-07T12:42:37;101893.88;;;7.31;58.37
5812;BME280;2932;52.400;9.558;2024-01-07T12:45:05;101897.09;;;7.38;58.60
5812;BME280;2932;52.400;9.558;2024-01-07T12:47:30;101897.34;;;7.60;58.28
5812;BME280;2932;52.400;9.558;2024-01-07T12:49:56;101898.16;;;7.42;58.09
5812;BME280;2932;52.400;9.558;2024-01-07T12:52:22;101903.53;;;7.28;58.56
5812;BME280;2932;52.400;9.558;2024-01-07T12:54:47;101895.41;;;7.42;59.32
5812;BME280;2932;52.400;9.558;2024-01-07T12:57:13;101898.97;;;7.43;59.00
5812;BME280;2932;52.400;9.558;2024-01-07T12:59:38;101896.28;;;7.38;58.76
5812;BME280;2932;52.400;9.558;2024-01-07T13:02:03;101903.00;;;7.50;58.65
5812;BME280;2932;52.400;9.558;2024-01-07T13:04:29;101906.81;;;7.54;58.36
5812;BME280;2932;52.400;9.558;2024-01-07T13:06:54;101910.19;;;7.70;58.81
5812;BME280;2932;52.400;9.558;2024-01-07T13:09:20;101907.78;;;7.63;58.47
5812;BME280;2932;52.400;9.558;2024-01-07T13:11:45;101913.72;;;7.52;58.54
5812;BME280;2932;52.400;9.558;2024-01-07T13:14:10;101910.41;;;7.74;58.37
5812;BME280;2932;52.400;9.558;2024-01-07T13:16:36;101913.22;;;7.68;58.15
5812;BME280;2932;52.400;9.558;2024-01-07T13:19:01;101913.59;;;7.62;58.08
5812;BME280;2932;52.400;9.558;2024-01-07T13:21:29;101910.88;;;7.81;58.09